Aeroporto :
LOGIN :

Iscrizione | Disclaimer

   EN    FR    IT 

 










Sommario :    VFR   VFR Marginale   IFR   IFR Intensivo   IFR Molto Intensivo
Visibilità : 
Base nubi : 
>= 8 km
>= 3000ft
5 / 8 km
1000 / 3000 ft
1500m / 5 km
500 / 1000 ft
800 / 1500m
200 / 500 ft
< 800m
< 200 ft
Simboli :   Temporali  Nebbia  Neve Forte  Precipitazioni Forti  Vento > 20 kt
SIGMETs :   Varie  Temporali  Ghiacco  Turbolenza  Onda orograficha  Ceneri Vulcaniche






- Altitudine del aeroporto : 939 ft


LKKB - Kbely Air Base

ULTIMO METAR :
  • 230900Z 09004KT 030V180 9999 FEW037 BKN050 23/13 Q1019

METARs OBSOLETI :
  • 230800Z VRB02KT CAVOK 21/13 Q1019
  • 230700Z 07003KT 010V120 CAVOK 21/12 Q1020
  • 230600Z 00000KT CAVOK 20/14 Q1019
  • 230500Z 00000KT CAVOK 19/13 Q1019

TAF TAF LKKB
Valido dal 23 a 06 ore il 24 a 06 ore UTC


230500Z 2306/2406 VRB02KT CAVOK
BECMG 2308/2310 18008KT
TEMPO 2311/2318 8000 SHRA BKN035TCU
BECMG 2314/2316 23012KT
TEMPO 2321/2404 30012KT 7000 SHRA SCT040TCU
PROB30
TEMPO 2321/2404 32014G24KT 4000 TSRA SCT035CB



MetMap, La meteo Aeronautica in un colpo d'occhio ! - Copyright ORBIFLY Dicembre 2007 - Disclaimer

ORBIFLY MET'MAP TEAM :

Programmazione e sviluppo : Alexandra Zaïnal
Concezione : Baudouin d'Aumeries
Supporto tecnico e logistico : Manuel Goepfert
Aiuto : Marc-Olivier Méhu
Aiuto per la traduzione : Arnaldo La Scala




FONTI E CREDITI :

   NOAA